createdAt,value
2018-12-06T06:10:06.252Z,16.80
2018-12-06T06:12:37.647Z,17.30
2018-12-06T06:15:12.020Z,17.40
2018-12-06T06:17:43.924Z,17.40
2018-12-06T06:20:15.029Z,17.40
2018-12-06T06:22:44.941Z,17.50
2018-12-06T06:25:15.172Z,17.50
2018-12-06T06:27:44.614Z,17.50
2018-12-06T06:30:14.057Z,17.60
2018-12-06T06:32:43.781Z,17.60
2018-12-06T06:35:13.004Z,17.60
2018-12-06T06:37:41.797Z,17.70
2018-12-06T06:40:11.205Z,17.70
2018-12-06T06:42:39.944Z,17.70
2018-12-06T06:45:09.106Z,17.70
2018-12-06T06:47:37.993Z,17.80
2018-12-06T06:50:07.193Z,17.80
2018-12-06T06:52:36.029Z,17.80
2018-12-06T06:55:05.149Z,17.80
2018-12-06T06:57:34.437Z,17.80
2018-12-06T07:00:03.816Z,17.90
2018-12-06T07:02:32.958Z,17.90
2018-12-06T07:05:01.710Z,17.90
2018-12-06T07:07:31.329Z,18.00
2018-12-06T07:10:00.400Z,18.00
2018-12-06T07:12:29.395Z,18.10
2018-12-06T07:14:58.592Z,18.10
2018-12-06T07:17:27.769Z,18.10
2018-12-06T07:19:57.294Z,18.20
2018-12-06T07:22:26.504Z,18.20
2018-12-06T07:24:55.663Z,18.20
2018-12-06T07:27:25.341Z,18.30
2018-12-06T07:29:54.109Z,18.30
2018-12-06T07:32:23.083Z,18.30
2018-12-06T07:34:52.689Z,18.30
2018-12-06T07:37:21.527Z,18.40
2018-12-06T07:39:50.387Z,18.40
2018-12-06T07:42:19.204Z,18.40
2018-12-06T07:44:48.220Z,18.40
2018-12-06T07:47:17.757Z,18.40
2018-12-06T07:49:46.624Z,18.40
2018-12-06T07:52:15.839Z,18.40
2018-12-06T07:54:44.707Z,18.40
2018-12-06T07:57:13.930Z,18.40
2018-12-06T07:59:44.766Z,18.40
2018-12-06T08:02:13.632Z,18.40
2018-12-06T08:04:42.580Z,18.40
2018-12-06T08:07:11.822Z,18.40
2018-12-06T08:09:41.506Z,18.40
2018-12-06T08:12:10.478Z,18.40
2018-12-06T08:14:39.644Z,18.40
2018-12-06T08:17:08.954Z,18.40
2018-12-06T08:19:38.203Z,18.40
2018-12-06T08:22:07.471Z,18.40
2018-12-06T08:24:37.013Z,18.40
2018-12-06T08:27:05.798Z,18.40
2018-12-06T08:29:34.659Z,18.40
2018-12-06T08:32:03.541Z,18.40
2018-12-06T08:34:32.496Z,18.40
2018-12-06T08:37:01.642Z,18.40
2018-12-06T08:39:30.545Z,18.40
2018-12-06T08:41:59.318Z,18.40
2018-12-06T08:44:28.598Z,18.40
2018-12-06T08:46:57.361Z,18.40
2018-12-06T08:49:26.708Z,18.40
2018-12-06T08:51:55.467Z,18.30
2018-12-06T08:54:24.295Z,18.30
2018-12-06T08:56:53.108Z,18.30
2018-12-06T08:59:22.905Z,18.30
2018-12-06T09:01:51.704Z,18.30
2018-12-06T09:04:20.473Z,18.30
2018-12-06T09:06:49.781Z,18.30
2018-12-06T09:09:19.649Z,18.30
2018-12-06T09:11:49.221Z,18.30
2018-12-06T09:14:17.999Z,18.30
2018-12-06T09:16:47.380Z,18.30
2018-12-06T09:19:16.481Z,18.30
2018-12-06T09:21:45.621Z,18.30
2018-12-06T09:24:14.912Z,18.30
2018-12-06T09:26:44.160Z,18.30
2018-12-06T09:29:12.916Z,18.30
2018-12-06T09:31:41.937Z,18.30
2018-12-06T09:36:40.089Z,18.30
2018-12-06T09:39:10.347Z,18.30
2018-12-06T09:41:39.766Z,18.30
2018-12-06T09:44:08.556Z,18.30
2018-12-06T09:46:38.027Z,18.30
2018-12-06T09:49:07.253Z,18.30
2018-12-06T09:51:36.205Z,18.20
2018-12-06T09:54:05.860Z,18.30
2018-12-06T09:56:35.091Z,18.30
2018-12-06T09:59:04.433Z,18.30
2018-12-06T10:01:33.337Z,18.30
2018-12-06T10:04:02.528Z,18.30
2018-12-06T10:06:31.380Z,18.30
2018-12-06T10:09:00.682Z,18.30
2018-12-06T10:11:29.496Z,18.40
2018-12-06T10:13:58.596Z,18.40
2018-12-06T10:16:27.876Z,18.40
2018-12-06T10:18:57.896Z,18.40
2018-12-06T10:21:27.128Z,18.50
2018-12-06T10:23:56.584Z,18.50
2018-12-06T10:26:26.064Z,18.50
2018-12-06T10:28:54.825Z,18.60
2018-12-06T10:31:23.690Z,18.60
2018-12-06T10:33:53.045Z,18.70
2018-12-06T10:36:22.764Z,18.70
2018-12-06T10:38:51.776Z,18.70
2018-12-06T10:41:21.058Z,18.70
2018-12-06T10:43:50.601Z,18.80
2018-12-06T10:46:23.451Z,18.80
2018-12-06T10:48:52.894Z,18.90
2018-12-06T10:51:33.018Z,18.80
2018-12-06T10:54:02.180Z,18.90
2018-12-06T10:56:31.363Z,18.90
2018-12-06T10:59:00.567Z,18.90
2018-12-06T11:01:34.758Z,18.90
2018-12-06T11:04:03.943Z,18.90
2018-12-06T11:06:33.179Z,18.90
2018-12-06T11:09:02.888Z,18.90
2018-12-06T11:11:32.068Z,18.90
2018-12-06T11:14:01.223Z,18.90
2018-12-06T11:16:30.560Z,18.90
2018-12-06T11:19:00.296Z,18.90
2018-12-06T11:23:58.346Z,18.90
2018-12-06T11:26:28.302Z,18.90
2018-12-06T11:28:57.049Z,18.90
2018-12-06T11:31:26.424Z,18.90
2018-12-06T11:33:55.356Z,18.90
2018-12-06T11:36:24.294Z,18.90
2018-12-06T11:38:53.208Z,18.90
2018-12-06T11:41:22.665Z,18.90
2018-12-06T11:43:52.003Z,18.90
2018-12-06T11:46:21.168Z,18.90
2018-12-06T11:48:50.559Z,18.90
2018-12-06T11:51:19.475Z,18.80
2018-12-06T11:53:48.732Z,18.80
2018-12-06T11:56:17.657Z,18.90
2018-12-06T11:58:46.875Z,18.80
2018-12-06T12:01:15.694Z,18.80
2018-12-06T12:03:44.864Z,18.80
2018-12-06T12:06:14.373Z,18.80
2018-12-06T12:08:44.546Z,18.80
2018-12-06T12:11:13.347Z,18.80
2018-12-06T12:13:42.818Z,18.80
2018-12-06T12:16:12.505Z,18.70
2018-12-06T12:18:41.278Z,18.80
2018-12-06T12:21:10.001Z,18.70
2018-12-06T12:23:39.735Z,18.70
2018-12-06T12:26:08.563Z,18.70
2018-12-06T12:28:38.053Z,18.70
2018-12-06T12:31:07.622Z,18.70
2018-12-06T12:33:37.169Z,18.70
2018-12-06T12:36:06.496Z,18.70
2018-12-06T12:38:35.766Z,18.70
2018-12-06T12:41:04.816Z,18.60
2018-12-06T12:43:33.939Z,18.60
2018-12-06T12:46:02.753Z,18.60
2018-12-06T12:48:31.932Z,18.60
2018-12-06T12:51:01.094Z,18.60
2018-12-06T12:53:30.362Z,18.60
2018-12-06T12:55:59.996Z,18.60
2018-12-06T12:58:29.969Z,18.60
2018-12-06T13:00:59.176Z,18.60
2018-12-06T13:03:27.916Z,18.60
2018-12-06T13:05:57.083Z,18.60
2018-12-06T13:08:26.264Z,18.60
2018-12-06T13:10:55.807Z,18.50
2018-12-06T13:13:25.309Z,18.50
2018-12-06T13:15:54.995Z,18.60
2018-12-06T13:18:24.788Z,18.60
2018-12-06T13:20:54.527Z,18.50
2018-12-06T13:23:23.745Z,18.50
2018-12-06T13:25:53.170Z,18.50
2018-12-06T13:28:22.300Z,18.50
2018-12-06T13:30:51.381Z,18.50
2018-12-06T13:33:20.661Z,18.50
2018-12-06T13:35:49.815Z,18.50
2018-12-06T13:38:19.578Z,18.50
2018-12-06T13:40:48.453Z,18.50
2018-12-06T13:43:18.048Z,18.50
2018-12-06T13:45:47.328Z,18.60
2018-12-06T13:48:16.272Z,18.60
2018-12-06T13:50:45.106Z,18.60
2018-12-06T13:53:14.361Z,18.60
2018-12-06T13:55:43.725Z,18.60
2018-12-06T13:58:13.468Z,18.70
2018-12-06T14:00:42.697Z,18.70
2018-12-06T14:03:12.143Z,18.70
2018-12-06T14:05:42.550Z,18.70
2018-12-06T14:08:11.572Z,18.80
2018-12-06T14:10:40.542Z,18.80
2018-12-06T14:13:10.201Z,18.80
2018-12-06T14:15:39.812Z,18.90
2018-12-06T14:18:08.608Z,18.90
2018-12-06T14:20:38.145Z,18.90
2018-12-06T14:23:07.091Z,19.00
2018-12-06T14:25:36.365Z,19.00
2018-12-06T14:28:06.201Z,19.10
2018-12-06T14:30:35.698Z,19.20
2018-12-06T14:33:05.233Z,19.20
2018-12-06T14:35:34.437Z,19.30
2018-12-06T14:38:03.333Z,19.30
2018-12-06T14:40:32.517Z,19.30
2018-12-06T14:43:02.200Z,19.40
2018-12-06T14:45:31.564Z,19.40
2018-12-06T14:48:01.112Z,19.40
2018-12-06T14:50:30.315Z,19.50
2018-12-06T14:52:59.329Z,19.50
2018-12-06T14:55:28.290Z,19.50
2018-12-06T14:57:57.453Z,19.60
2018-12-06T15:00:27.008Z,19.60
2018-12-06T15:02:56.231Z,19.60
2018-12-06T15:05:25.494Z,19.60
2018-12-06T15:07:54.960Z,19.60
2018-12-06T15:10:24.448Z,19.60
2018-12-06T15:12:53.788Z,19.60
2018-12-06T15:15:23.430Z,19.60
2018-12-06T15:17:52.545Z,19.60
2018-12-06T15:20:22.362Z,19.60
2018-12-06T15:22:52.041Z,19.70
2018-12-06T15:25:21.130Z,19.70
2018-12-06T15:27:50.982Z,19.70
2018-12-06T15:30:20.209Z,19.70
2018-12-06T15:32:49.180Z,19.70
2018-12-06T15:35:18.850Z,19.70
2018-12-06T15:37:47.698Z,19.70
2018-12-06T15:40:16.799Z,19.70
2018-12-06T15:42:46.874Z,19.70
2018-12-06T15:45:15.785Z,19.70
2018-12-06T15:47:45.029Z,19.70
2018-12-06T15:50:13.790Z,19.70
2018-12-06T15:52:42.817Z,19.70
2018-12-06T15:55:12.079Z,19.70
2018-12-06T15:57:41.063Z,19.70
2018-12-06T16:00:12.725Z,19.70
2018-12-06T16:02:42.329Z,19.70
2018-12-06T16:05:11.813Z,19.80
2018-12-06T16:07:41.487Z,19.80
2018-12-06T16:10:11.258Z,19.80
2018-12-06T16:12:40.376Z,19.80
2018-12-06T16:15:09.156Z,19.80
2018-12-06T16:17:38.386Z,19.80
2018-12-06T16:20:09.922Z,19.90
2018-12-06T16:22:39.154Z,19.90
2018-12-06T16:25:08.592Z,19.90
2018-12-06T16:27:37.299Z,19.90
2018-12-06T16:30:07.805Z,20.00
2018-12-06T16:35:05.696Z,20.00
2018-12-06T16:37:35.162Z,20.00
2018-12-06T16:40:05.483Z,20.00
2018-12-06T16:42:34.597Z,20.00
2018-12-06T16:45:03.694Z,20.10
2018-12-06T16:47:32.929Z,20.10
2018-12-06T16:50:01.672Z,20.10
2018-12-06T16:52:30.773Z,20.10
2018-12-06T16:54:59.969Z,20.10
2018-12-06T16:57:29.266Z,20.20
2018-12-06T16:59:58.223Z,20.20
2018-12-06T17:02:27.062Z,20.20
2018-12-06T17:04:56.048Z,20.20
2018-12-06T17:07:25.397Z,20.20
2018-12-06T17:09:54.406Z,20.30
2018-12-06T17:12:23.284Z,20.30
2018-12-06T17:14:52.421Z,20.30
2018-12-06T17:17:21.603Z,20.30
2018-12-06T17:19:51.028Z,20.30
2018-12-06T17:22:20.025Z,20.40
2018-12-06T17:24:48.708Z,20.40
2018-12-06T17:27:18.083Z,20.40
2018-12-06T17:29:47.113Z,20.40
2018-12-06T17:32:16.211Z,20.50
2018-12-06T17:34:45.703Z,20.50
2018-12-06T17:37:15.119Z,20.50
2018-12-06T17:39:44.219Z,20.50
2018-12-06T17:42:12.949Z,20.50
2018-12-06T17:47:10.955Z,20.50
2018-12-06T17:49:40.008Z,20.60
2018-12-06T17:52:09.201Z,20.60
2018-12-06T17:54:37.913Z,20.60
2018-12-06T17:57:06.663Z,20.60
2018-12-06T17:59:35.740Z,20.70
2018-12-06T18:02:04.618Z,20.60
2018-12-06T18:04:33.466Z,20.70
2018-12-06T18:07:02.140Z,20.70
2018-12-06T18:11:59.780Z,20.70
2018-12-06T18:14:29.013Z,20.70
2018-12-06T18:16:57.883Z,20.70
2018-12-06T18:19:27.304Z,20.70
2018-12-06T18:21:56.034Z,20.70
2018-12-06T18:24:25.248Z,20.70
2018-12-06T18:26:54.424Z,20.60
2018-12-06T18:29:23.700Z,20.60
2018-12-06T18:34:21.981Z,20.60
2018-12-06T18:36:50.861Z,20.50
2018-12-06T18:39:19.589Z,20.50
2018-12-06T18:41:48.292Z,20.50
2018-12-06T18:44:17.609Z,20.50
2018-12-06T18:46:46.320Z,20.50
2018-12-06T18:49:16.033Z,20.50
2018-12-06T18:54:13.758Z,20.40
2018-12-06T18:56:42.961Z,20.40
2018-12-06T18:59:11.854Z,20.40
2018-12-06T19:01:40.582Z,20.30
2018-12-06T19:04:09.352Z,20.30
2018-12-06T19:06:43.139Z,20.30
2018-12-06T19:09:12.380Z,20.20
2018-12-06T19:11:41.267Z,20.20
2018-12-06T19:14:10.829Z,20.20
2018-12-06T19:16:40.068Z,20.20
2018-12-06T19:19:09.303Z,20.20
2018-12-06T19:21:38.239Z,20.10
2018-12-06T19:24:08.080Z,20.10
2018-12-06T19:26:38.902Z,20.10
2018-12-06T19:29:08.093Z,20.10
2018-12-06T19:31:36.850Z,20.00
2018-12-06T19:34:05.825Z,20.00
2018-12-06T19:36:35.062Z,20.00
2018-12-06T19:39:04.745Z,19.90
2018-12-06T19:41:34.265Z,19.90
2018-12-06T19:44:03.259Z,19.90
2018-12-06T19:46:32.356Z,19.90
2018-12-06T19:49:01.251Z,19.90
2018-12-06T19:51:30.310Z,19.90
2018-12-06T19:53:59.396Z,19.80
2018-12-06T19:56:28.369Z,19.80
2018-12-06T19:58:57.340Z,19.80
2018-12-06T20:01:26.978Z,19.80
2018-12-06T20:03:56.066Z,19.80
2018-12-06T20:06:25.917Z,19.80
2018-12-06T20:08:55.451Z,19.80
2018-12-06T20:11:25.655Z,19.70
2018-12-06T20:13:56.214Z,19.70
2018-12-06T20:16:25.430Z,19.70
2018-12-06T20:18:54.434Z,19.70
2018-12-06T20:21:24.130Z,19.70
2018-12-06T20:23:53.899Z,19.60
2018-12-06T20:26:23.380Z,19.70
2018-12-06T20:28:52.931Z,19.60
2018-12-06T20:31:22.460Z,19.60
2018-12-06T20:33:51.291Z,19.60
2018-12-06T20:36:20.728Z,19.60
2018-12-06T20:38:50.296Z,19.60
2018-12-06T20:41:19.921Z,19.60
2018-12-06T20:43:49.332Z,19.60
2018-12-06T20:46:18.422Z,19.60
2018-12-06T20:48:47.690Z,19.50
2018-12-06T20:51:16.634Z,19.60
2018-12-06T20:53:45.758Z,19.60
2018-12-06T20:56:15.701Z,19.60
2018-12-06T20:58:44.812Z,19.60
2018-12-06T21:01:13.981Z,19.60
2018-12-06T21:03:43.512Z,19.60
2018-12-06T21:06:12.313Z,19.60
2018-12-06T21:08:41.549Z,19.60
2018-12-06T21:11:11.160Z,19.60
2018-12-06T21:13:40.667Z,19.60
2018-12-06T21:16:09.820Z,19.60
2018-12-06T21:18:39.094Z,19.60
2018-12-06T21:21:08.360Z,19.60
2018-12-06T21:23:37.484Z,19.60
2018-12-06T21:28:35.549Z,19.60
2018-12-06T21:31:05.241Z,19.60
2018-12-06T21:33:35.071Z,19.60
2018-12-06T21:36:04.203Z,19.60
2018-12-06T21:38:33.500Z,19.60
2018-12-06T21:41:02.618Z,19.60
2018-12-06T21:43:32.540Z,19.60
2018-12-06T21:46:01.737Z,19.60
2018-12-06T21:48:31.266Z,19.60
2018-12-06T21:51:00.052Z,19.60
2018-12-06T21:53:29.433Z,19.60
2018-12-06T21:55:58.751Z,19.60
